createdAt,value
2022-08-26T00:00:54.386Z,100324.00
2022-08-26T00:03:25.172Z,100339.50
2022-08-26T00:05:55.028Z,100349.09
2022-08-26T00:08:25.622Z,100358.72
2022-08-26T00:10:55.255Z,100354.94
2022-08-26T00:13:25.439Z,100366.53
2022-08-26T00:15:54.827Z,100373.69
2022-08-26T00:18:24.227Z,100372.97
2022-08-26T00:20:58.120Z,100391.59
2022-08-26T00:23:28.941Z,100384.94
2022-08-26T00:25:58.576Z,100386.66
2022-08-26T00:28:28.469Z,100383.22
2022-08-26T00:30:58.120Z,100387.56
2022-08-26T00:33:27.727Z,100396.47
2022-08-26T00:35:57.329Z,100387.09
2022-08-26T00:38:27.342Z,100400.50
2022-08-26T00:40:59.062Z,100418.75
2022-08-26T00:43:30.445Z,100413.41
2022-08-26T00:46:46.841Z,100416.66
2022-08-26T00:49:32.558Z,100406.75
2022-08-26T00:52:04.341Z,100414.28
2022-08-26T00:54:37.731Z,100420.44
2022-08-26T00:57:16.718Z,100424.47
2022-08-26T00:59:49.397Z,100428.75
2022-08-26T01:02:21.120Z,100421.81
2022-08-26T01:04:58.016Z,100433.06
2022-08-26T01:07:31.594Z,100430.38
2022-08-26T01:10:03.802Z,100424.25
2022-08-26T01:12:40.290Z,100412.44
2022-08-26T01:15:11.984Z,100443.53
2022-08-26T01:17:41.728Z,100430.13
2022-08-26T01:20:36.083Z,100430.94
2022-08-26T01:23:11.437Z,100452.66
2022-08-26T01:25:53.152Z,100452.94
2022-08-26T01:28:26.127Z,100448.38
2022-08-26T01:30:56.040Z,100432.03
2022-08-26T01:33:30.786Z,100450.03
2022-08-26T01:36:12.159Z,100450.84
2022-08-26T01:38:42.109Z,100452.16
2022-08-26T01:41:16.294Z,100457.25
2022-08-26T01:43:52.152Z,100452.44
2022-08-26T01:46:23.795Z,100463.16
2022-08-26T01:48:54.404Z,100471.19
2022-08-26T01:51:25.650Z,100447.59
2022-08-26T01:53:56.069Z,100473.06
2022-08-26T01:56:26.052Z,100471.72
2022-08-26T01:59:07.031Z,100443.59
2022-08-26T02:01:39.921Z,100443.59
2022-08-26T02:04:35.296Z,100466.63
2022-08-26T02:07:11.095Z,100468.78
2022-08-26T02:09:42.351Z,100454.31
2022-08-26T02:12:13.461Z,100459.13
2022-08-26T02:14:53.263Z,100448.41
2022-08-26T02:17:26.222Z,100456.72
2022-08-26T02:19:59.116Z,100451.91
2022-08-26T02:22:29.179Z,100441.44
2022-08-26T02:25:01.269Z,100453.75
2022-08-26T02:27:34.912Z,100434.22
2022-08-26T02:30:17.223Z,100458.31
2022-08-26T02:32:49.513Z,100445.72
2022-08-26T02:35:22.108Z,100463.44
2022-08-26T02:37:53.306Z,100449.22
2022-08-26T02:40:28.405Z,100439.03
2022-08-26T02:42:57.964Z,100436.91
2022-08-26T02:45:29.264Z,100465.28
2022-08-26T02:48:00.263Z,100454.56
2022-08-26T02:50:30.075Z,100453.22
2022-08-26T02:53:00.243Z,100415.97
2022-08-26T02:55:30.118Z,100434.72
2022-08-26T02:58:00.610Z,100446.53
2022-08-26T03:00:30.388Z,100451.34
2022-08-26T03:03:00.895Z,100452.44
2022-08-26T03:05:30.378Z,100447.06
2022-08-26T03:08:03.425Z,100422.69
2022-08-26T03:10:33.565Z,100411.69
2022-08-26T03:13:05.070Z,100429.34
2022-08-26T03:15:34.808Z,100437.41
2022-08-26T03:18:04.982Z,100421.03
2022-08-26T03:20:35.470Z,100431.78
2022-08-26T03:23:05.732Z,100434.19
2022-08-26T03:25:40.060Z,100434.19
2022-08-26T03:28:09.854Z,100369.38
2022-08-26T03:30:44.682Z,100415.94
2022-08-26T03:33:15.591Z,100426.97
2022-08-26T03:35:46.513Z,100413.28
2022-08-26T03:38:16.555Z,100412.47
2022-08-26T03:40:47.428Z,100427.22
2022-08-26T03:43:18.628Z,100413.53
2022-08-26T03:45:48.188Z,100409.78
2022-08-26T03:48:20.843Z,100414.09
2022-08-26T03:50:50.104Z,100402.81
2022-08-26T03:53:20.708Z,100386.22
2022-08-26T03:55:51.806Z,100392.91
2022-08-26T03:58:22.371Z,100406.31
2022-08-26T04:00:55.728Z,100398.78
2022-08-26T04:03:44.290Z,100388.09
2022-08-26T04:06:14.235Z,100395.03
2022-08-26T04:08:44.495Z,100388.88
2022-08-26T04:11:20.367Z,100406.53
2022-08-26T04:13:50.801Z,100403.56
2022-08-26T04:16:21.779Z,100398.75
2022-08-26T04:18:52.669Z,100394.75
2022-08-26T04:21:22.773Z,100399.31
2022-08-26T04:23:52.943Z,100398.50
2022-08-26T04:26:25.016Z,100401.44
2022-08-26T04:28:57.530Z,100387.78
2022-08-26T04:31:29.122Z,100369.84
2022-08-26T04:34:01.349Z,100404.09
2022-08-26T04:36:31.443Z,100399.81
2022-08-26T04:39:04.889Z,100378.13
2022-08-26T04:41:34.686Z,100392.31
2022-08-26T04:44:07.937Z,100383.72
2022-08-26T04:46:39.790Z,100391.75
2022-08-26T04:49:13.691Z,100388.00
2022-08-26T04:51:43.916Z,100352.41
2022-08-26T04:54:16.280Z,100357.22
2022-08-26T04:56:48.074Z,100382.88
2022-08-26T04:59:19.207Z,100363.59
2022-08-26T05:01:50.998Z,100361.16
2022-08-26T05:04:28.442Z,100360.63
2022-08-26T05:07:02.261Z,100346.69
2022-08-26T05:09:33.614Z,100359.50
2022-08-26T05:12:06.463Z,100342.88
2022-08-26T05:14:35.881Z,100341.25
2022-08-26T05:17:06.519Z,100355.19
2022-08-26T05:19:42.864Z,100346.59
2022-08-26T05:22:13.111Z,100331.59
2022-08-26T05:24:44.904Z,100323.56
2022-08-26T05:27:15.188Z,100317.94
2022-08-26T05:29:47.427Z,100334.00
2022-08-26T05:32:23.869Z,100302.72
2022-08-26T05:34:58.891Z,100322.25
2022-08-26T05:37:32.234Z,100333.19
2022-08-26T05:40:02.727Z,100322.16
2022-08-26T05:42:32.322Z,100341.75
2022-08-26T05:45:02.487Z,100319.53
2022-08-26T05:47:32.569Z,100320.59
2022-08-26T05:50:03.541Z,100339.38
2022-08-26T05:52:35.940Z,100345.25
2022-08-26T05:55:06.139Z,100354.63
2022-08-26T05:57:40.385Z,100338.56
2022-08-26T06:00:17.958Z,100357.88
2022-08-26T06:02:48.373Z,100355.47
2022-08-26T06:05:20.889Z,100339.38
2022-08-26T06:08:09.838Z,100356.00
2022-08-26T06:11:01.606Z,100352.78
2022-08-26T06:13:32.292Z,100324.38
2022-08-26T06:16:05.949Z,100326.75
2022-08-26T06:18:44.937Z,100321.13
2022-08-26T06:21:34.830Z,100290.84
2022-08-26T06:24:48.544Z,100272.34
2022-08-26T06:27:20.871Z,100274.19
2022-08-26T06:29:50.518Z,100263.75
2022-08-26T06:32:20.236Z,100280.06
2022-08-26T06:34:58.319Z,100283.84
2022-08-26T06:37:28.470Z,100278.75
2022-08-26T06:39:58.982Z,100285.69
2022-08-26T06:42:28.647Z,100284.16
2022-08-26T06:45:01.015Z,100259.03
2022-08-26T06:47:30.718Z,100274.81
2022-08-26T06:50:00.007Z,100279.88
2022-08-26T06:52:29.657Z,100248.22
2022-08-26T06:54:59.425Z,100268.06
2022-08-26T06:57:31.121Z,100273.03
2022-08-26T07:00:01.291Z,100270.81
2022-08-26T07:02:30.618Z,100280.44
2022-08-26T07:05:00.304Z,100271.59
2022-08-26T07:07:32.219Z,100261.44
2022-08-26T07:10:02.052Z,100257.56
2022-08-26T07:12:32.134Z,100255.19
2022-08-26T07:15:02.549Z,100248.09
2022-08-26T07:17:32.364Z,100277.78
2022-08-26T07:20:05.070Z,100268.25
2022-08-26T07:22:38.403Z,100275.59
2022-08-26T07:25:11.860Z,100272.78
2022-08-26T07:27:42.960Z,100230.94
2022-08-26T07:30:14.765Z,100271.47
2022-08-26T07:32:45.031Z,100257.81
2022-08-26T07:35:15.795Z,100275.28
2022-08-26T07:37:49.819Z,100220.06
2022-08-26T07:40:24.711Z,100257.28
2022-08-26T07:43:02.048Z,100273.88
2022-08-26T07:45:33.935Z,100271.69
2022-08-26T07:48:04.634Z,100273.78
2022-08-26T07:50:50.043Z,100257.94
2022-08-26T07:53:22.217Z,100286.19
2022-08-26T07:55:57.162Z,100271.91
2022-08-26T07:58:27.450Z,100261.44
2022-08-26T08:00:58.263Z,100285.66
2022-08-26T08:03:30.436Z,100284.66
2022-08-26T08:06:00.646Z,100286.94
2022-08-26T08:08:30.385Z,100255.38
2022-08-26T08:11:02.281Z,100289.66
2022-08-26T08:13:33.181Z,100287.81
2022-08-26T08:16:02.904Z,100290.16
2022-08-26T08:18:35.488Z,100288.31
2022-08-26T08:21:25.078Z,100298.44
2022-08-26T08:23:58.134Z,100305.41
2022-08-26T08:26:28.718Z,100272.00
2022-08-26T08:29:00.540Z,100300.53
2022-08-26T08:31:56.148Z,100295.31
2022-08-26T08:34:22.171Z,100299.41
2022-08-26T08:36:53.275Z,100317.16
2022-08-26T08:39:23.677Z,100314.75
2022-08-26T08:42:07.567Z,100318.28
2022-08-26T08:44:41.526Z,100330.13
2022-08-26T08:47:40.372Z,100325.88
2022-08-26T08:50:27.344Z,100316.75
2022-08-26T08:53:13.544Z,100323.50
2022-08-26T08:55:53.037Z,100331.28
2022-08-26T08:58:33.861Z,100333.97
2022-08-26T09:01:06.757Z,100329.41
2022-08-26T09:04:05.187Z,100324.91
2022-08-26T09:06:35.196Z,100306.97
2022-08-26T09:09:13.989Z,100306.41
2022-08-26T09:11:44.704Z,100298.66
2022-08-26T09:14:14.859Z,100330.00
2022-08-26T09:17:19.597Z,100311.78
2022-08-26T09:19:57.772Z,100332.69
2022-08-26T09:22:36.715Z,100334.00
2022-08-26T09:25:12.135Z,100307.78
2022-08-26T09:27:46.703Z,100329.19
2022-08-26T09:30:36.089Z,100336.69
2022-08-26T09:33:12.455Z,100325.75
2022-08-26T09:35:50.053Z,100332.41
2022-08-26T09:38:36.005Z,100340.44
2022-08-26T09:41:15.528Z,100325.72
2022-08-26T09:43:45.787Z,100352.47
2022-08-26T09:46:30.124Z,100337.50
2022-08-26T09:49:36.232Z,100371.22
2022-08-26T09:52:09.752Z,100373.91
2022-08-26T09:54:41.426Z,100378.22
2022-08-26T09:57:28.939Z,100350.06
2022-08-26T10:00:00.328Z,100381.16
2022-08-26T10:02:37.156Z,100386.78
2022-08-26T10:05:11.441Z,100367.22
2022-08-26T10:07:49.924Z,100390.56
2022-08-26T10:10:30.406Z,100385.19
2022-08-26T10:13:07.970Z,100398.03
2022-08-26T10:16:00.944Z,100397.22
2022-08-26T10:19:00.143Z,100397.78
2022-08-26T10:21:52.279Z,100389.19
2022-08-26T10:24:55.296Z,100381.16
2022-08-26T10:27:30.187Z,100404.22
2022-08-26T10:30:09.528Z,100392.97
2022-08-26T10:32:47.441Z,100390.00
2022-08-26T10:35:20.338Z,100405.81
2022-08-26T10:38:00.803Z,100417.34
2022-08-26T10:40:55.732Z,100419.47
2022-08-26T10:43:31.187Z,100406.91
2022-08-26T10:46:09.061Z,100422.16
2022-08-26T10:48:59.966Z,100403.13
2022-08-26T10:51:37.101Z,100428.59
2022-08-26T10:54:20.193Z,100402.06
2022-08-26T10:57:09.644Z,100411.44
2022-08-26T10:59:42.357Z,100426.97
2022-08-26T11:02:25.314Z,100429.38
2022-08-26T11:05:02.510Z,100430.19
2022-08-26T11:07:44.063Z,100443.31
2022-08-26T11:10:15.535Z,100447.59
2022-08-26T11:12:49.178Z,100442.22
2022-08-26T11:15:29.688Z,100437.41
2022-08-26T11:18:04.668Z,100425.91
2022-08-26T11:20:47.259Z,100409.28
2022-08-26T11:23:25.264Z,100422.16
2022-08-26T11:26:30.019Z,100427.22
2022-08-26T11:29:13.258Z,100417.59
2022-08-26T11:31:43.262Z,100436.09
2022-08-26T11:34:16.648Z,100415.72
2022-08-26T11:36:49.362Z,100439.31
2022-08-26T11:39:25.758Z,100438.78
2022-08-26T11:42:01.691Z,100444.41
2022-08-26T11:44:49.208Z,100450.81
2022-08-26T11:47:28.724Z,100444.13
2022-08-26T11:50:38.200Z,100470.38
2022-08-26T11:53:10.890Z,100462.63
2022-08-26T11:55:47.236Z,100461.25
2022-08-26T11:58:18.256Z,100469.31
2022-08-26T12:00:53.987Z,100477.34
2022-08-26T12:03:29.280Z,100478.97
2022-08-26T12:06:00.563Z,100485.66
2022-08-26T12:08:39.138Z,100484.59
2022-08-26T12:11:15.252Z,100498.50
2022-08-26T12:13:46.373Z,100486.19
2022-08-26T12:16:26.072Z,100475.19
2022-08-26T12:18:57.388Z,100474.16
2022-08-26T12:21:34.783Z,100497.19
2022-08-26T12:24:06.648Z,100489.41
2022-08-26T12:26:39.011Z,100480.84
2022-08-26T12:29:27.455Z,100487.28
2022-08-26T12:32:19.677Z,100475.75
2022-08-26T12:34:50.758Z,100473.59
2022-08-26T12:37:22.597Z,100472.53
2022-08-26T12:39:55.319Z,100487.00
2022-08-26T12:42:44.502Z,100491.28
2022-08-26T12:45:13.783Z,100487.00
2022-08-26T12:47:45.194Z,100492.09
2022-08-26T12:50:28.946Z,100503.59
2022-08-26T12:53:17.976Z,100501.19
2022-08-26T12:55:53.669Z,100495.56
2022-08-26T12:58:40.940Z,100509.50
2022-08-26T13:01:11.498Z,100510.31
2022-08-26T13:03:47.485Z,100496.38
2022-08-26T13:06:17.885Z,100518.34
2022-08-26T13:09:13.496Z,100514.31
2022-08-26T13:11:46.139Z,100519.94
2022-08-26T13:14:23.889Z,100507.63
2022-08-26T13:16:55.574Z,100512.72
2022-08-26T13:19:33.444Z,100505.50
2022-08-26T13:22:21.669Z,100507.09
2022-08-26T13:24:52.128Z,100499.06
2022-08-26T13:27:23.633Z,100502.28
2022-08-26T13:33:15.692Z,100480.03
2022-08-26T13:36:29.648Z,100483.50
2022-08-26T13:39:01.317Z,100486.19
2022-08-26T13:41:32.833Z,100508.97
2022-08-26T13:44:08.828Z,100517.81
2022-08-26T13:46:40.538Z,100518.91
2022-08-26T13:49:10.566Z,100517.00
2022-08-26T13:51:41.093Z,100518.09
2022-08-26T13:54:10.789Z,100530.16
2022-08-26T13:56:40.800Z,100518.34
2022-08-26T13:59:11.615Z,100532.84
2022-08-26T14:01:42.345Z,100515.13
2022-08-26T14:04:16.886Z,100522.63
2022-08-26T14:06:54.318Z,100529.34
2022-08-26T14:09:27.968Z,100521.88
2022-08-26T14:12:01.075Z,100485.91
2022-08-26T14:14:37.383Z,100482.44
2022-08-26T14:17:11.364Z,100504.41
2022-08-26T14:19:41.473Z,100508.97
2022-08-26T14:22:14.650Z,100496.09
2022-08-26T14:24:44.176Z,100502.81
2022-08-26T14:27:14.683Z,100507.38
2022-08-26T14:30:01.803Z,100512.47
2022-08-26T14:32:34.461Z,100494.78
2022-08-26T14:35:05.614Z,100502.56
2022-08-26T14:37:39.328Z,100496.38
2022-08-26T14:40:11.371Z,100493.44
2022-08-26T14:42:49.176Z,100490.19
2022-08-26T14:45:26.203Z,100501.75
2022-08-26T14:48:02.753Z,100487.28
2022-08-26T14:50:34.311Z,100507.41
2022-08-26T14:53:22.965Z,100493.97
2022-08-26T14:55:56.527Z,100485.66
2022-08-26T14:58:33.773Z,100501.75
2022-08-26T15:01:07.040Z,100481.38
2022-08-26T15:03:39.393Z,100492.63
2022-08-26T15:06:10.547Z,100475.19
2022-08-26T15:08:42.174Z,100473.88
2022-08-26T15:11:12.696Z,100484.59
2022-08-26T15:13:43.512Z,100484.06
2022-08-26T15:16:15.677Z,100475.22
2022-08-26T15:18:46.096Z,100470.69
2022-08-26T15:21:15.962Z,100469.56
2022-08-26T15:23:47.665Z,100475.50
2022-08-26T15:26:21.496Z,100452.44
2022-08-26T15:28:52.061Z,100467.72
2022-08-26T15:31:23.740Z,100461.00
2022-08-26T15:33:58.235Z,100450.53
2022-08-26T15:36:31.825Z,100453.50
2022-08-26T15:39:06.163Z,100459.13
2022-08-26T15:41:37.665Z,100454.59
2022-08-26T15:44:09.818Z,100452.97
2022-08-26T15:46:39.970Z,100442.75
2022-08-26T15:49:16.969Z,100443.88
2022-08-26T15:51:49.653Z,100454.59
2022-08-26T15:54:21.845Z,100429.63
2022-08-26T15:56:53.696Z,100463.41
2022-08-26T15:59:29.768Z,100466.09
2022-08-26T16:02:00.741Z,100464.78
2022-08-26T16:04:30.433Z,100445.72
2022-08-26T16:07:00.701Z,100474.41
2022-08-26T16:09:31.981Z,100480.03
2022-08-26T16:12:04.043Z,100487.03
2022-08-26T16:14:37.227Z,100478.72
2022-08-26T16:17:06.772Z,100478.72
2022-08-26T16:19:39.119Z,100486.22
2022-08-26T16:22:11.275Z,100469.31
2022-08-26T16:24:42.663Z,100462.34
2022-08-26T16:27:15.343Z,100462.34
2022-08-26T16:29:47.037Z,100463.94
2022-08-26T16:32:18.319Z,100443.84
2022-08-26T16:34:56.630Z,100439.28
2022-08-26T16:37:28.233Z,100455.38
2022-08-26T16:39:59.074Z,100448.41
2022-08-26T16:42:30.333Z,100454.03
2022-08-26T16:45:01.707Z,100450.28
2022-08-26T16:47:32.236Z,100446.28
2022-08-26T16:50:03.269Z,100440.38
2022-08-26T16:52:33.190Z,100411.94
2022-08-26T16:55:04.302Z,100426.69
2022-08-26T16:57:35.016Z,100435.28
2022-08-26T17:00:11.355Z,100425.63
2022-08-26T17:02:44.293Z,100440.63
2022-08-26T17:05:14.890Z,100443.59
2022-08-26T17:07:46.581Z,100428.81
2022-08-26T17:10:17.834Z,100433.66
2022-08-26T17:12:47.378Z,100418.09
2022-08-26T17:15:19.530Z,100396.38
2022-08-26T17:17:49.840Z,100400.16
2022-08-26T17:20:20.176Z,100420.00
2022-08-26T17:22:52.466Z,100389.72
2022-08-26T17:25:35.182Z,100426.69
2022-08-26T17:28:05.247Z,100423.75
2022-08-26T17:30:43.359Z,100405.50
2022-08-26T17:33:13.017Z,100421.88
2022-08-26T17:35:43.850Z,100409.53
2022-08-26T17:38:13.468Z,100398.00
2022-08-26T17:40:45.533Z,100410.88
2022-08-26T17:43:16.144Z,100391.84
2022-08-26T17:45:46.617Z,100391.03
2022-08-26T17:48:16.178Z,100395.34
2022-08-26T17:50:49.618Z,100393.69
2022-08-26T17:53:21.680Z,100389.69
2022-08-26T17:55:53.164Z,100377.88
2022-08-26T17:58:25.104Z,100379.53
2022-08-26T18:00:57.386Z,100381.38
2022-08-26T18:03:27.200Z,100396.94
2022-08-26T18:05:58.247Z,100393.97
2022-08-26T18:08:27.582Z,100383.25
2022-08-26T18:10:58.452Z,100393.44
2022-08-26T18:13:27.954Z,100407.38
2022-08-26T18:15:57.299Z,100397.75
2022-08-26T18:18:26.896Z,100392.38
2022-08-26T18:21:01.268Z,100373.63
2022-08-26T18:23:31.578Z,100401.25
2022-08-26T18:26:01.513Z,100392.09
2022-08-26T18:28:32.482Z,100388.34
2022-08-26T18:31:06.989Z,100365.84
2022-08-26T18:33:37.974Z,100374.69
2022-08-26T18:36:09.358Z,100371.22
2022-08-26T18:38:38.821Z,100370.41
2022-08-26T18:41:13.769Z,100369.59
2022-08-26T18:43:42.983Z,100365.59
2022-08-26T18:46:13.750Z,100370.41
2022-08-26T18:48:43.844Z,100370.94
2022-08-26T18:51:24.554Z,100363.69
2022-08-26T18:53:54.689Z,100379.25
2022-08-26T18:56:25.396Z,100380.84
2022-08-26T18:58:55.392Z,100381.91
2022-08-26T19:01:27.586Z,100354.88
2022-08-26T19:04:00.874Z,100389.16
2022-08-26T19:06:34.543Z,100374.44
2022-08-26T19:09:06.698Z,100389.44
2022-08-26T19:11:42.880Z,100393.22
2022-08-26T19:14:16.004Z,100397.19
2022-08-26T19:16:49.704Z,100393.69
2022-08-26T19:19:19.424Z,100392.91
2022-08-26T19:21:49.355Z,100398.81
2022-08-26T19:24:22.056Z,100398.81
2022-08-26T19:26:58.047Z,100401.25
2022-08-26T19:29:30.392Z,100404.97
2022-08-26T19:32:00.482Z,100381.66
2022-08-26T19:34:31.965Z,100396.38
2022-08-26T19:37:02.903Z,100384.06
2022-08-26T19:39:34.147Z,100378.44
2022-08-26T19:42:05.000Z,100394.50
2022-08-26T19:44:53.600Z,100392.09
2022-08-26T19:47:23.242Z,100392.38
2022-08-26T19:50:00.353Z,100371.22
2022-08-26T19:52:32.653Z,100405.22
2022-08-26T19:55:05.357Z,100392.09
2022-08-26T19:57:35.620Z,100397.47
2022-08-26T20:00:08.400Z,100391.00
2022-08-26T20:02:38.741Z,100396.94
2022-08-26T20:05:09.551Z,100392.63
2022-08-26T20:07:39.584Z,100403.66
2022-08-26T20:10:12.344Z,100402.84
2022-08-26T20:12:43.981Z,100395.06
2022-08-26T20:15:14.609Z,100391.28
2022-08-26T20:17:44.842Z,100398.56
2022-08-26T20:20:33.109Z,100396.41
2022-08-26T20:23:07.437Z,100401.50
2022-08-26T20:25:38.406Z,100400.69
2022-08-26T20:28:07.988Z,100403.13
2022-08-26T20:30:39.140Z,100382.47
2022-08-26T20:33:10.265Z,100413.03
2022-08-26T20:35:39.976Z,100410.34
2022-08-26T20:38:11.794Z,100422.16
2022-08-26T20:40:41.888Z,100405.78
2022-08-26T20:43:11.646Z,100395.59
2022-08-26T20:45:42.317Z,100406.84
2022-08-26T20:48:13.726Z,100407.66
2022-08-26T20:50:43.903Z,100395.31
2022-08-26T20:53:15.102Z,100409.53
2022-08-26T20:55:44.893Z,100406.59
2022-08-26T20:58:15.973Z,100410.06
2022-08-26T21:00:45.640Z,100398.56
2022-08-26T21:03:16.502Z,100414.91
2022-08-26T21:05:46.462Z,100394.78
2022-08-26T21:08:16.838Z,100403.09
2022-08-26T21:10:47.197Z,100410.88
2022-08-26T21:13:16.975Z,100409.28
2022-08-26T21:15:46.700Z,100411.97
2022-08-26T21:18:17.831Z,100421.31
2022-08-26T21:20:48.180Z,100419.72
2022-08-26T21:23:17.374Z,100429.63
2022-08-26T21:25:47.715Z,100433.13
2022-08-26T21:28:18.188Z,100434.19
2022-08-26T21:30:47.888Z,100421.88
2022-08-26T21:33:17.539Z,100432.59
2022-08-26T21:35:57.601Z,100432.31
2022-08-26T21:38:28.421Z,100441.94
2022-08-26T21:41:03.394Z,100417.88
2022-08-26T21:43:35.803Z,100429.34
2022-08-26T21:46:17.147Z,100434.72
2022-08-26T21:48:50.913Z,100456.44
2022-08-26T21:51:24.392Z,100450.25
2022-08-26T21:53:55.261Z,100435.53
2022-08-26T21:56:26.393Z,100449.75
2022-08-26T21:58:57.487Z,100444.38
2022-08-26T22:01:30.564Z,100445.44
2022-08-26T22:04:00.992Z,100437.94
2022-08-26T22:06:31.060Z,100450.25
2022-08-26T22:09:00.797Z,100443.31
2022-08-26T22:11:30.993Z,100458.59
2022-08-26T22:14:00.608Z,100444.63
2022-08-26T22:16:31.824Z,100437.13
2022-08-26T22:19:02.069Z,100465.03
2022-08-26T22:21:31.840Z,100441.72
2022-08-26T22:24:01.615Z,100462.06
2022-08-26T22:26:33.123Z,100470.09
2022-08-26T22:29:03.240Z,100486.47
2022-08-26T22:31:38.373Z,100493.44
2022-08-26T22:34:13.327Z,100478.97
2022-08-26T22:36:45.681Z,100488.09
2022-08-26T22:39:19.120Z,100487.78
2022-08-26T22:41:51.601Z,100495.06
2022-08-26T22:44:24.866Z,100495.31
2022-08-26T22:46:56.782Z,100497.19
2022-08-26T22:49:26.799Z,100494.50
2022-08-26T22:51:56.290Z,100485.38
2022-08-26T22:54:26.011Z,100466.63
2022-08-26T22:56:55.652Z,100496.94
2022-08-26T22:59:25.363Z,100499.88
2022-08-26T23:01:54.783Z,100498.22
2022-08-26T23:04:24.471Z,100453.50
2022-08-26T23:06:54.377Z,100482.41
2022-08-26T23:09:24.619Z,100474.94
2022-08-26T23:11:57.421Z,100481.09
2022-08-26T23:14:29.896Z,100496.13
2022-08-26T23:16:59.376Z,100492.38
2022-08-26T23:19:29.424Z,100499.03
2022-08-26T23:21:59.085Z,100503.88
2022-08-26T23:24:28.652Z,100492.88
2022-08-26T23:26:58.380Z,100481.66
2022-08-26T23:29:28.523Z,100492.09
2022-08-26T23:31:58.524Z,100488.88
2022-08-26T23:34:47.466Z,100502.53
2022-08-26T23:37:19.580Z,100501.19
2022-08-26T23:39:50.882Z,100470.94
2022-08-26T23:42:21.610Z,100479.75
2022-08-26T23:44:51.663Z,100478.69
2022-08-26T23:47:21.434Z,100491.28
2022-08-26T23:49:52.427Z,100509.78
2022-08-26T23:52:39.746Z,100518.91
2022-08-26T23:55:11.152Z,100503.88
2022-08-26T23:57:41.458Z,100519.69
